Time;durP1;ratioP1;P1;durP2;ratioP2;P2;SDS_P1;SDS_P2;PMS_P1;PMS_P2;Temp;Humidity;BMP_temperature;BMP_pressure;BME280_temperature;BME280_humidity;BME280_pressure;Samples;Min_cycle;Max_cycle;Signal;HPM_P1;HPM_P2
2022/10/08 03:01:25;;;;;;;8.45;2.22;;;13.90;99.90;;;;;;5858197;23;88883;-83
2022/10/08 03:03:57;;;;;;;4.60;2.20;;;14.00;99.90;;;;;;4910260;28;87332;-80
2022/10/08 03:06:26;;;;;;;7.72;2.53;;;13.90;99.90;;;;;;4916893;28;86969;-80
2022/10/08 03:08:55;;;;;;;6.07;2.05;;;13.90;99.90;;;;;;4915993;28;86430;-81
2022/10/08 03:11:22;;;;;;;6.25;2.70;;;13.90;99.90;;;;;;4915110;28;85904;-80
2022/10/08 03:13:50;;;;;;;7.38;2.55;;;13.90;99.90;;;;;;4916660;28;86545;-78
2022/10/08 03:16:20;;;;;;;6.35;2.22;;;13.80;99.90;;;;;;4914978;28;86948;-80
2022/10/08 03:18:47;;;;;;;4.85;2.63;;;13.70;99.90;;;;;;4912938;28;87186;-78
2022/10/08 03:21:14;;;;;;;4.93;1.92;;;13.80;99.90;;;;;;4919616;28;87091;-78
2022/10/08 03:23:40;;;;;;;5.43;2.15;;;13.80;99.90;;;;;;4912009;28;86925;-79
2022/10/08 03:26:06;;;;;;;8.70;2.75;;;13.80;99.90;;;;;;4915609;28;86270;-78
2022/10/08 03:28:32;;;;;;;7.00;2.35;;;13.80;99.90;;;;;;4913972;28;86849;-77
2022/10/08 03:30:57;;;;;;;7.82;2.25;;;13.90;99.90;;;;;;4904422;28;88037;-78
2022/10/08 03:33:23;;;;;;;4.35;1.85;;;13.80;99.90;;;;;;4906430;28;87171;-79
2022/10/08 03:35:50;;;;;;;5.85;2.67;;;13.90;99.90;;;;;;4918830;28;86216;-78
2022/10/08 03:38:16;;;;;;;5.68;1.92;;;13.90;99.90;;;;;;4917297;28;87120;-77
2022/10/08 03:40:42;;;;;;;6.25;1.92;;;14.00;99.90;;;;;;4912481;28;86319;-82
2022/10/08 03:43:08;;;;;;;5.90;1.67;;;14.00;99.90;;;;;;4914272;28;88610;-82
2022/10/08 03:45:33;;;;;;;6.03;1.95;;;14.00;99.90;;;;;;4923661;28;87736;-81
2022/10/08 03:47:59;;;;;;;5.32;1.80;;;14.00;99.90;;;;;;4921467;28;86354;-83
2022/10/08 03:50:25;;;;;;;4.80;1.70;;;14.00;99.90;;;;;;4918941;28;87078;-77
2022/10/08 03:52:51;;;;;;;4.47;1.95;;;14.00;99.90;;;;;;4915015;28;87188;-77
2022/10/08 03:55:16;;;;;;;4.63;1.50;;;13.90;99.90;;;;;;4914220;28;87050;-76
2022/10/08 03:57:42;;;;;;;3.67;1.83;;;14.00;99.90;;;;;;4915030;28;86649;-78
2022/10/08 04:00:08;;;;;;;6.28;1.73;;;14.00;99.90;;;;;;4916843;28;86118;-79
2022/10/08 04:02:34;;;;;;;4.80;2.00;;;14.00;99.90;;;;;;4893344;28;88250;-78
2022/10/08 04:04:59;;;;;;;6.18;2.65;;;14.00;99.90;;;;;;4891459;28;86979;-82
2022/10/08 04:07:26;;;;;;;7.22;2.10;;;14.00;99.90;;;;;;4893694;28;87358;-78
2022/10/08 04:09:51;;;;;;;5.18;1.92;;;13.90;99.90;;;;;;4896745;28;86660;-80
2022/10/08 04:12:17;;;;;;;4.95;1.83;;;14.00;99.90;;;;;;4896420;28;87222;-81
2022/10/08 04:14:43;;;;;;;4.47;1.60;;;14.00;99.90;;;;;;4900510;28;87840;-80
2022/10/08 04:17:09;;;;;;;3.63;1.77;;;14.00;99.90;;;;;;4900335;28;86716;-80
2022/10/08 04:19:34;;;;;;;5.38;1.95;;;14.00;99.90;;;;;;4889468;28;86823;-78
2022/10/08 04:22:00;;;;;;;5.25;1.80;;;13.90;99.90;;;;;;4898410;28;87095;-79
2022/10/08 04:24:26;;;;;;;5.97;1.80;;;14.00;99.90;;;;;;4891071;28;87452;-80
2022/10/08 04:26:51;;;;;;;5.28;2.10;;;14.00;99.90;;;;;;4899173;28;86253;-81
2022/10/08 04:29:17;;;;;;;4.90;2.08;;;14.00;99.90;;;;;;4897836;28;86309;-77
2022/10/08 04:31:42;;;;;;;7.25;2.17;;;14.00;99.90;;;;;;4895104;28;88489;-78
2022/10/08 04:34:11;;;;;;;5.15;1.90;;;14.00;99.90;;;;;;4898112;28;87231;-77
2022/10/08 04:36:38;;;;;;;6.05;2.10;;;14.00;99.90;;;;;;4899290;28;86653;-77
2022/10/08 04:39:04;;;;;;;7.95;2.40;;;14.00;99.90;;;;;;4898113;28;86269;-77
2022/10/08 04:41:29;;;;;;;6.65;2.50;;;13.90;99.90;;;;;;4897464;28;87308;-81
2022/10/08 04:44:01;;;;;;;3.65;2.05;;;13.80;99.90;;;;;;4898812;28;87038;-80
2022/10/08 04:46:27;;;;;;;3.92;1.73;;;13.90;99.90;;;;;;4892014;28;87911;-79
2022/10/08 04:48:55;;;;;;;8.10;2.67;;;14.00;99.90;;;;;;4873192;28;85615;-80
2022/10/08 04:51:23;;;;;;;8.15;3.28;;;14.10;99.90;;;;;;4885537;28;87275;-79
2022/10/08 04:53:49;;;;;;;6.65;2.83;;;14.10;99.90;;;;;;4880586;28;86908;-80
2022/10/08 04:56:17;;;;;;;7.40;3.22;;;14.10;99.90;;;;;;4902031;28;87975;-81
2022/10/08 04:58:44;;;;;;;8.27;4.40;;;14.10;99.90;;;;;;4893288;28;87234;-80
2022/10/08 05:01:12;;;;;;;10.13;4.70;;;14.10;99.90;;;;;;4890234;28;87719;-79
2022/10/08 05:03:39;;;;;;;13.32;6.20;;;14.20;99.90;;;;;;4897578;28;87393;-81
2022/10/08 05:06:06;;;;;;;11.27;3.83;;;14.20;99.90;;;;;;4897713;28;86372;-77
2022/10/08 05:08:32;;;;;;;6.97;3.15;;;14.30;99.90;;;;;;4897897;28;86952;-79
2022/10/08 05:10:58;;;;;;;9.30;2.17;;;14.40;99.90;;;;;;4897790;28;86538;-81
2022/10/08 05:13:23;;;;;;;6.55;2.40;;;14.00;99.90;;;;;;4899015;28;87832;-79
2022/10/08 05:15:49;;;;;;;5.00;1.70;;;13.90;99.90;;;;;;4899122;28;86333;-82
2022/10/08 05:18:15;;;;;;;4.68;1.90;;;13.80;99.90;;;;;;4900095;28;86791;-82
2022/10/08 05:20:41;;;;;;;5.10;2.25;;;13.90;99.90;;;;;;4899309;28;87861;-80
2022/10/08 05:23:06;;;;;;;7.60;2.10;;;13.90;99.90;;;;;;4897415;28;87733;-80
2022/10/08 05:25:33;;;;;;;5.75;2.00;;;13.80;99.90;;;;;;4898964;28;86405;-82
2022/10/08 05:27:59;;;;;;;7.70;2.20;;;13.70;99.90;;;;;;4896585;28;87427;-81
2022/10/08 05:30:25;;;;;;;4.68;2.33;;;13.70;99.90;;;;;;4899115;28;87017;-82
2022/10/08 05:32:51;;;;;;;5.15;2.30;;;13.80;99.90;;;;;;4900683;28;86544;-83
2022/10/08 05:35:16;;;;;;;4.20;1.83;;;13.80;99.90;;;;;;4900747;28;86962;-82
2022/10/08 05:37:42;;;;;;;4.30;1.98;;;13.70;99.90;;;;;;4900543;28;85640;-80
2022/10/08 05:40:08;;;;;;;5.05;1.92;;;13.70;99.90;;;;;;4896236;28;87859;-80
2022/10/08 05:42:34;;;;;;;3.08;1.52;;;13.80;99.90;;;;;;4901404;28;87589;-79
2022/10/08 05:44:59;;;;;;;4.75;1.80;;;13.80;99.90;;;;;;4901327;28;88000;-79
2022/10/08 05:47:25;;;;;;;4.30;2.20;;;13.70;99.90;;;;;;4901625;28;86347;-79
2022/10/08 05:49:51;;;;;;;5.03;2.95;;;13.70;99.90;;;;;;4896645;28;88541;-79
2022/10/08 05:52:17;;;;;;;6.82;2.47;;;13.60;99.90;;;;;;4900983;28;87750;-82
2022/10/08 05:54:43;;;;;;;6.07;2.22;;;13.50;99.90;;;;;;4902703;28;86934;-82
2022/10/08 05:57:08;;;;;;;9.80;2.60;;;13.50;99.90;;;;;;4906037;28;86908;-80
2022/10/08 05:59:34;;;;;;;7.22;3.08;;;13.40;99.90;;;;;;4899651;28;88426;-81
2022/10/08 06:02:00;;;;;;;5.72;2.28;;;13.30;99.90;;;;;;4905676;28;86961;-80
2022/10/08 06:04:25;;;;;;;4.18;1.65;;;13.40;99.90;;;;;;4904329;28;86797;-83
2022/10/08 06:06:51;;;;;;;4.05;1.80;;;13.50;99.90;;;;;;4903072;28;86384;-80
2022/10/08 06:09:19;;;;;;;10.68;2.20;;;13.70;99.90;;;;;;4901485;28;88186;-81
2022/10/08 06:11:45;;;;;;;6.10;2.25;;;13.80;99.90;;;;;;4899848;28;87602;-81
2022/10/08 06:14:12;;;;;;;4.55;1.55;;;13.80;99.90;;;;;;4902607;28;86578;-81
2022/10/08 06:16:39;;;;;;;7.65;3.67;;;13.90;99.90;;;;;;4897671;28;87221;-81
2022/10/08 06:19:06;;;;;;;10.23;5.20;;;13.90;99.90;;;;;;4901201;28;87213;-81
2022/10/08 06:21:33;;;;;;;7.03;1.50;;;14.00;99.90;;;;;;4901015;28;86189;-83
2022/10/08 06:24:01;;;;;;;6.85;2.65;;;14.10;99.00;;;;;;4901994;28;86779;-82
2022/10/08 06:26:31;;;;;;;4.75;2.03;;;14.20;97.90;;;;;;4902727;28;86210;-81
2022/10/08 06:28:57;;;;;;;3.05;1.30;;;14.20;97.90;;;;;;4901928;28;87001;-81
2022/10/08 06:31:23;;;;;;;5.75;1.60;;;14.20;97.60;;;;;;4900923;28;87492;-81
2022/10/08 06:33:49;;;;;;;3.40;1.38;;;14.30;97.50;;;;;;4902183;28;87729;-81
2022/10/08 06:36:19;;;;;;;4.82;1.27;;;14.30;97.50;;;;;;4902648;28;86276;-81
2022/10/08 06:38:54;;;;;;;5.47;1.40;;;14.20;97.20;;;;;;4907132;28;87271;-81
2022/10/08 06:41:20;;;;;;;3.08;1.27;;;14.30;97.00;;;;;;4878649;28;86771;-78
2022/10/08 06:43:46;;;;;;;4.88;1.50;;;14.30;96.50;;;;;;4903669;28;86470;-81
2022/10/08 06:46:14;;;;;;;6.95;1.50;;;14.40;96.00;;;;;;4897788;28;86324;-80
2022/10/08 06:48:39;;;;;;;4.82;1.30;;;14.40;96.10;;;;;;4893558;28;86886;-78
2022/10/08 06:51:11;;;;;;;5.82;1.85;;;14.40;96.20;;;;;;4893069;28;86574;-78
2022/10/08 06:53:37;;;;;;;4.18;1.40;;;14.40;96.00;;;;;;4896413;28;88807;-79
2022/10/08 06:56:09;;;;;;;3.47;1.35;;;14.40;96.20;;;;;;4898613;28;86304;-79
2022/10/08 06:58:36;;;;;;;3.80;1.35;;;14.50;95.90;;;;;;4893612;28;88683;-78
2022/10/08 07:01:08;;;;;;;7.70;1.65;;;14.50;96.00;;;;;;4899146;28;89247;-79
2022/10/08 07:03:34;;;;;;;3.33;1.25;;;14.50;95.50;;;;;;4873892;28;87405;-79
2022/10/08 07:06:01;;;;;;;6.88;1.33;;;14.50;95.60;;;;;;4880013;28;87183;-78
2022/10/08 07:08:28;;;;;;;7.22;1.83;;;14.60;95.10;;;;;;4876772;28;87657;-78
2022/10/08 07:10:54;;;;;;;3.85;1.38;;;14.60;94.70;;;;;;4880827;28;86875;-84
2022/10/08 07:13:19;;;;;;;5.35;1.63;;;14.50;95.00;;;;;;4876614;28;86878;-81
2022/10/08 07:15:45;;;;;;;6.07;1.50;;;14.60;94.40;;;;;;4883014;28;86130;-81
2022/10/08 07:18:11;;;;;;;5.85;1.40;;;14.60;93.90;;;;;;4880242;28;87210;-78
2022/10/08 07:20:38;;;;;;;4.25;1.33;;;14.50;94.20;;;;;;4876273;28;87105;-82
2022/10/08 07:23:04;;;;;;;6.53;2.08;;;14.60;94.10;;;;;;4875394;28;87845;-81
2022/10/08 07:25:30;;;;;;;4.60;1.42;;;14.50;94.30;;;;;;4879864;28;86514;-81
2022/10/08 07:27:56;;;;;;;5.38;1.52;;;14.40;94.80;;;;;;4882092;28;88280;-82
2022/10/08 07:30:22;;;;;;;2.78;1.02;;;14.30;95.90;;;;;;4879769;28;86283;-81
2022/10/08 07:32:50;;;;;;;9.70;1.83;;;14.30;96.30;;;;;;4876117;28;86248;-81
2022/10/08 07:35:16;;;;;;;5.10;1.55;;;14.20;97.30;;;;;;4876007;28;87347;-82
2022/10/08 07:37:42;;;;;;;4.28;1.70;;;14.20;97.20;;;;;;4876117;28;87380;-82
2022/10/08 07:40:08;;;;;;;2.75;1.40;;;14.40;98.20;;;;;;4879738;28;86859;-81
2022/10/08 07:42:33;;;;;;;9.18;3.38;;;14.50;98.80;;;;;;4880592;28;87667;-82
2022/10/08 07:44:59;;;;;;;6.60;2.90;;;14.70;99.70;;;;;;4874357;28;86285;-83
2022/10/08 07:47:25;;;;;;;6.93;3.28;;;14.80;99.90;;;;;;4871171;28;88829;-82
2022/10/08 07:49:50;;;;;;;9.13;5.40;;;14.90;99.90;;;;;;4871658;28;87162;-83
2022/10/08 07:52:18;;;;;;;6.97;4.05;;;15.00;99.90;;;;;;4869538;28;86761;-85
2022/10/08 07:54:44;;;;;;;11.00;4.15;;;15.00;99.90;;;;;;4870965;28;86631;-84
2022/10/08 07:57:10;;;;;;;10.32;5.10;;;15.10;99.90;;;;;;4873902;28;89251;-87
2022/10/08 07:59:36;;;;;;;11.77;5.57;;;15.10;99.90;;;;;;4873239;28;86978;-78
2022/10/08 08:02:02;;;;;;;10.40;5.47;;;15.10;99.90;;;;;;4874206;28;87184;-83
2022/10/08 08:04:28;;;;;;;8.40;3.35;;;15.20;99.90;;;;;;4888242;28;86093;-81
2022/10/08 08:06:53;;;;;;;6.97;1.92;;;14.90;99.90;;;;;;4891398;28;87195;-80
2022/10/08 08:09:19;;;;;;;4.85;1.55;;;14.90;99.40;;;;;;4887200;28;87188;-81
2022/10/08 08:11:47;;;;;;;6.38;1.80;;;15.00;96.80;;;;;;4895273;28;87194;-82
2022/10/08 08:14:13;;;;;;;4.85;1.70;;;15.10;97.30;;;;;;4891154;28;88153;-81
2022/10/08 08:16:39;;;;;;;6.78;1.70;;;15.30;96.10;;;;;;4894254;28;86702;-81
2022/10/08 08:19:05;;;;;;;5.10;2.22;;;15.30;95.80;;;;;;4894154;28;86968;-83
2022/10/08 08:21:34;;;;;;;6.00;2.20;;;15.50;95.60;;;;;;4892940;28;87011;-83
2022/10/08 08:24:11;;;;;;;5.75;1.60;;;15.70;95.40;;;;;;4896100;28;86906;-83
2022/10/08 08:26:40;;;;;;;3.90;1.60;;;15.70;95.80;;;;;;4896675;28;87388;-81
2022/10/08 08:29:09;;;;;;;5.35;1.88;;;15.90;95.50;;;;;;4894892;28;86830;-80
2022/10/08 08:31:37;;;;;;;4.72;1.80;;;16.10;94.90;;;;;;4902043;28;87131;-81
2022/10/08 08:34:09;;;;;;;4.00;1.90;;;16.00;94.50;;;;;;4900088;28;86358;-82
2022/10/08 08:36:37;;;;;;;5.10;2.33;;;16.00;94.90;;;;;;4896842;28;87826;-81
2022/10/08 08:39:04;;;;;;;5.85;2.05;;;16.20;94.90;;;;;;4895935;28;87932;-82
2022/10/08 08:41:59;;;;;;;4.13;1.58;;;16.50;94.40;;;;;;4894156;28;86873;-83
2022/10/08 08:44:39;;;;;;;6.90;1.63;;;16.60;92.20;;;;;;4896828;28;86639;-83
2022/10/08 08:47:21;;;;;;;4.18;1.33;;;16.60;90.20;;;;;;4894298;28;88646;-84
2022/10/08 08:49:52;;;;;;;5.00;1.80;;;16.70;90.40;;;;;;4894898;28;87089;-83
2022/10/08 08:52:22;;;;;;;3.45;1.23;;;16.90;89.60;;;;;;4893056;28;87163;-84
2022/10/08 08:54:50;;;;;;;5.70;1.10;;;17.00;87.80;;;;;;4891574;28;86128;-83
2022/10/08 08:57:40;;;;;;;5.85;1.40;;;16.90;87.20;;;;;;4897638;28;89342;-82
2022/10/08 09:00:21;;;;;;;3.13;1.30;;;16.90;88.30;;;;;;4893449;28;87469;-83
2022/10/08 09:02:58;;;;;;;7.72;1.42;;;16.90;87.20;;;;;;4884291;28;87224;-81
2022/10/08 09:05:27;;;;;;;3.95;1.30;;;17.00;88.10;;;;;;4875874;28;86443;-82
2022/10/08 09:08:21;;;;;;;3.47;1.35;;;17.00;86.80;;;;;;4873751;28;87356;-77
2022/10/08 09:10:54;;;;;;;3.70;1.45;;;16.90;85.80;;;;;;4867017;28;86285;-78
2022/10/08 09:13:24;;;;;;;3.83;1.23;;;16.50;86.90;;;;;;4872106;28;87665;-77
2022/10/08 09:15:51;;;;;;;4.47;1.35;;;16.30;87.70;;;;;;4869995;28;87319;-76
2022/10/08 09:18:17;;;;;;;4.35;1.45;;;16.40;88.90;;;;;;4874063;28;88712;-77
2022/10/08 09:20:44;;;;;;;6.70;1.38;;;16.50;87.30;;;;;;4876429;28;88499;-78
2022/10/08 09:23:14;;;;;;;10.05;1.27;;;16.50;87.00;;;;;;4876054;28;86927;-78
2022/10/08 09:25:41;;;;;;;6.70;1.48;;;16.50;87.30;;;;;;4884309;28;86828;-77
2022/10/08 09:28:07;;;;;;;2.35;1.20;;;16.50;88.30;;;;;;4881871;28;88130;-77
2022/10/08 09:30:43;;;;;;;3.55;1.20;;;16.60;87.60;;;;;;4882122;28;87328;-77
2022/10/08 09:33:17;;;;;;;3.10;1.20;;;16.70;86.10;;;;;;4879313;28;86741;-76
2022/10/08 09:35:46;;;;;;;4.25;1.00;;;16.90;86.10;;;;;;4880935;28;87028;-78
2022/10/08 09:38:24;;;;;;;3.03;1.15;;;17.10;85.60;;;;;;4886497;28;87336;-79
2022/10/08 09:41:23;;;;;;;2.75;0.80;;;17.20;85.70;;;;;;4889511;28;87223;-78
2022/10/08 09:44:07;;;;;;;6.18;1.77;;;17.20;84.80;;;;;;4878638;28;86923;-79
2022/10/08 09:46:32;;;;;;;3.13;0.95;;;17.20;84.00;;;;;;4881554;28;85765;-79
2022/10/08 09:49:25;;;;;;;3.50;0.93;;;17.20;85.30;;;;;;4874551;28;87293;-79
2022/10/08 09:51:51;;;;;;;4.45;1.40;;;17.40;83.20;;;;;;4860916;28;88274;-79
2022/10/08 09:54:26;;;;;;;4.25;1.45;;;17.60;84.20;;;;;;4880656;28;87824;-81
2022/10/08 09:56:55;;;;;;;2.58;0.90;;;17.70;82.00;;;;;;4876789;28;87119;-81
2022/10/08 09:59:24;;;;;;;7.72;1.98;;;17.60;82.50;;;;;;4883698;28;87618;-81
2022/10/08 10:01:50;;;;;;;4.10;1.00;;;17.60;83.60;;;;;;4884269;28;88123;-80
2022/10/08 10:04:33;;;;;;;13.40;2.75;;;17.60;83.30;;;;;;4901704;28;87295;-80
2022/10/08 10:06:59;;;;;;;7.85;2.72;;;17.40;87.50;;;;;;4898833;28;86950;-81
2022/10/08 10:09:46;;;;;;;5.38;2.45;;;17.50;89.50;;;;;;4898491;28;86790;-80
2022/10/08 10:12:35;;;;;;;7.32;2.53;;;17.70;89.50;;;;;;4905696;28;87596;-80
2022/10/08 10:15:39;;;;;;;6.90;3.33;;;17.90;89.70;;;;;;4892501;28;87131;-80
2022/10/08 10:18:12;;;;;;;8.75;4.20;;;17.90;89.70;;;;;;4881020;28;87018;-81
2022/10/08 10:20:44;;;;;;;10.63;5.20;;;17.90;91.20;;;;;;4896624;28;88043;-81
2022/10/08 10:23:10;;;;;;;14.43;6.57;;;18.00;91.50;;;;;;4890889;28;87245;-81
2022/10/08 10:25:52;;;;;;;12.27;6.13;;;18.10;91.40;;;;;;4899439;28;86293;-80
2022/10/08 10:28:38;;;;;;;10.43;5.68;;;18.10;91.60;;;;;;4902213;28;87294;-82
2022/10/08 10:31:09;;;;;;;13.23;7.05;;;18.20;91.80;;;;;;4883208;28;87586;-82
2022/10/08 10:33:48;;;;;;;11.82;7.50;;;18.50;91.70;;;;;;4897501;28;87051;-82
2022/10/08 10:36:17;;;;;;;13.52;7.22;;;18.50;91.30;;;;;;4895324;28;87444;-82
2022/10/08 10:38:52;;;;;;;18.40;7.00;;;18.60;91.50;;;;;;4894239;28;86173;-83
2022/10/08 10:41:36;;;;;;;12.90;6.85;;;18.50;91.80;;;;;;4898304;28;88206;-82
2022/10/08 10:44:09;;;;;;;11.05;6.72;;;18.70;92.00;;;;;;4897875;28;87513;-81
2022/10/08 10:46:50;;;;;;;9.82;6.18;;;18.60;92.40;;;;;;4893078;28;87593;-81
2022/10/08 10:49:20;;;;;;;14.13;7.43;;;18.80;92.50;;;;;;4896084;28;87051;-81
2022/10/08 10:51:53;;;;;;;17.42;8.60;;;18.80;92.60;;;;;;4893918;28;87142;-81
2022/10/08 10:54:56;;;;;;;13.20;7.28;;;18.70;92.80;;;;;;4894153;28;87297;-81
2022/10/08 10:57:29;;;;;;;14.00;7.78;;;18.80;93.10;;;;;;4891694;28;86477;-81
2022/10/08 11:00:08;;;;;;;13.32;7.57;;;18.90;93.00;;;;;;4890841;28;87103;-81
2022/10/08 11:02:58;;;;;;;17.90;8.27;;;19.10;92.90;;;;;;4895649;28;87297;-81
2022/10/08 11:05:31;;;;;;;15.13;8.77;;;19.30;92.30;;;;;;4900578;28;87298;-81
2022/10/08 11:08:24;;;;;;;14.20;8.82;;;19.20;92.30;;;;;;4899063;28;87246;-81
2022/10/08 11:11:19;;;;;;;13.57;8.60;;;19.10;93.10;;;;;;4898030;28;87146;-79
2022/10/08 11:14:19;;;;;;;12.55;6.38;;;19.40;92.60;;;;;;4905465;28;88329;-81
2022/10/08 11:16:54;;;;;;;13.63;7.13;;;19.40;91.70;;;;;;4854958;28;87948;-81
2022/10/08 11:19:46;;;;;;;8.15;5.10;;;19.50;91.00;;;;;;4901031;28;86715;-81
2022/10/08 11:22:19;;;;;;;9.00;3.35;;;19.50;86.60;;;;;;4888642;28;86730;-79
2022/10/08 11:25:16;;;;;;;5.07;2.50;;;19.50;85.80;;;;;;4897535;28;86997;-79
2022/10/08 11:28:10;;;;;;;6.95;2.42;;;19.40;84.20;;;;;;4894518;28;86678;-82
2022/10/08 11:30:47;;;;;;;6.78;3.10;;;19.50;80.50;;;;;;4895525;28;86700;-80
2022/10/08 11:33:14;;;;;;;5.32;2.25;;;19.20;82.70;;;;;;4900460;28;86045;-79
2022/10/08 11:36:15;;;;;;;7.60;2.28;;;19.10;82.30;;;;;;4898061;28;86787;-79
2022/10/08 11:39:20;;;;;;;7.53;3.20;;;19.10;79.60;;;;;;4859601;28;86949;-80
2022/10/08 11:42:20;;;;;;;6.32;2.83;;;18.90;75.90;;;;;;4894244;28;87256;-80
2022/10/08 11:44:46;;;;;;;7.60;2.70;;;18.70;79.30;;;;;;4892041;28;86881;-82
2022/10/08 11:47:42;;;;;;;5.88;2.58;;;18.80;80.40;;;;;;4899318;28;86523;-81
2022/10/08 11:50:29;;;;;;;5.55;1.83;;;18.90;75.80;;;;;;4892532;28;87458;-82
2022/10/08 11:53:12;;;;;;;6.75;2.10;;;19.00;80.20;;;;;;4900899;28;86323;-81
2022/10/08 11:55:38;;;;;;;7.05;2.60;;;18.90;78.70;;;;;;4902083;28;86904;-80
2022/10/08 11:58:16;;;;;;;10.27;2.92;;;18.60;78.30;;;;;;4898392;28;86952;-80
2022/10/08 12:00:46;;;;;;;5.82;3.38;;;18.40;80.10;;;;;;4898438;28;87557;-80
2022/10/08 12:03:29;;;;;;;6.43;2.40;;;18.20;80.00;;;;;;4900613;28;86909;-80
2022/10/08 12:06:11;;;;;;;5.18;2.35;;;18.10;81.60;;;;;;4894477;28;86686;-80
2022/10/08 12:08:58;;;;;;;4.88;2.78;;;18.30;84.80;;;;;;4898044;28;88267;-80
2022/10/08 12:11:39;;;;;;;6.57;2.53;;;18.20;81.90;;;;;;4896804;28;88403;-80
2022/10/08 12:14:10;;;;;;;10.35;2.60;;;17.80;85.60;;;;;;4904637;28;86832;-80
2022/10/08 12:16:55;;;;;;;4.70;2.55;;;17.80;86.00;;;;;;4901424;28;86701;-79
2022/10/08 12:19:32;;;;;;;7.05;2.40;;;18.10;87.20;;;;;;4891180;28;89236;-81
2022/10/08 12:22:13;;;;;;;7.22;2.53;;;18.30;85.70;;;;;;4896205;28;87966;-81
2022/10/08 12:24:39;;;;;;;11.25;3.15;;;18.30;86.50;;;;;;4894852;28;87074;-81
2022/10/08 12:27:17;;;;;;;5.40;2.45;;;18.20;86.20;;;;;;4899013;28;85625;-81
2022/10/08 12:29:53;;;;;;;4.47;2.15;;;18.10;87.00;;;;;;4901153;28;86805;-80
2022/10/08 12:32:20;;;;;;;8.27;2.42;;;18.00;87.50;;;;;;4896131;28;88209;-80
2022/10/08 12:34:45;;;;;;;5.97;2.63;;;17.80;89.20;;;;;;4896123;28;88296;-80
2022/10/08 12:37:19;;;;;;;6.10;2.75;;;17.60;90.20;;;;;;4896830;28;87023;-80
2022/10/08 12:39:46;;;;;;;7.80;2.47;;;17.50;90.90;;;;;;4897374;28;87487;-81
2022/10/08 12:42:21;;;;;;;7.45;4.03;;;17.50;91.40;;;;;;4894594;28;86905;-81
2022/10/08 12:44:58;;;;;;;7.20;2.70;;;17.30;92.50;;;;;;4895729;28;87537;-82
2022/10/08 12:47:47;;;;;;;6.15;2.85;;;16.90;92.80;;;;;;4902065;28;86330;-80
2022/10/08 12:50:31;;;;;;;5.63;2.90;;;16.90;94.20;;;;;;4898130;28;88555;-82
2022/10/08 12:53:02;;;;;;;10.05;3.65;;;16.90;94.50;;;;;;4903046;28;86815;-82
2022/10/08 12:55:30;;;;;;;7.15;2.65;;;16.90;94.60;;;;;;4901376;28;86682;-80
2022/10/08 12:57:56;;;;;;;12.13;3.95;;;16.90;94.70;;;;;;4903980;28;86375;-80
2022/10/08 13:00:27;;;;;;;10.52;3.78;;;16.80;96.20;;;;;;4902675;28;89174;-80
2022/10/08 13:03:02;;;;;;;9.50;3.85;;;16.50;96.10;;;;;;4903764;28;87784;-80
2022/10/08 13:05:35;;;;;;;10.68;3.83;;;16.50;96.70;;;;;;4904645;28;87118;-81
2022/10/08 13:08:27;;;;;;;9.27;5.15;;;16.40;97.20;;;;;;4904048;28;86723;-82
2022/10/08 13:10:54;;;;;;;6.13;3.25;;;16.40;98.60;;;;;;4903760;28;86880;-79
2022/10/08 13:13:38;;;;;;;8.13;3.67;;;16.30;97.80;;;;;;4904188;28;87152;-80
2022/10/08 13:16:19;;;;;;;6.80;2.95;;;16.20;97.80;;;;;;4904700;28;86470;-79
2022/10/08 13:18:52;;;;;;;9.75;3.83;;;16.10;99.10;;;;;;4895778;28;85616;-81
2022/10/08 13:21:29;;;;;;;8.90;3.50;;;16.10;99.60;;;;;;4903207;28;87306;-80
2022/10/08 13:23:55;;;;;;;7.95;3.10;;;16.30;99.30;;;;;;4902525;28;86892;-82
2022/10/08 13:26:54;;;;;;;6.82;3.10;;;16.30;99.80;;;;;;4900245;28;87285;-80
2022/10/08 13:29:33;;;;;;;6.55;3.00;;;16.30;99.20;;;;;;4898189;28;86737;-79
2022/10/08 13:32:01;;;;;;;7.38;3.30;;;16.30;99.90;;;;;;4902430;28;87254;-79
2022/10/08 13:34:38;;;;;;;6.82;2.90;;;16.20;99.90;;;;;;4902362;28;88625;-81
2022/10/08 13:37:11;;;;;;;12.48;3.22;;;16.20;99.90;;;;;;4901903;28;86874;-80
2022/10/08 13:39:40;;;;;;;6.32;3.15;;;16.10;99.90;;;;;;4900573;28;86701;-82
2022/10/08 13:42:17;;;;;;;8.75;3.17;;;16.10;99.90;;;;;;4903733;28;86627;-79
2022/10/08 13:44:43;;;;;;;6.93;3.05;;;16.10;99.90;;;;;;4904118;28;86964;-80
2022/10/08 13:47:17;;;;;;;10.82;3.33;;;16.10;99.90;;;;;;4904289;28;86916;-79
2022/10/08 13:49:43;;;;;;;11.55;4.70;;;16.10;99.90;;;;;;4898152;28;87128;-79
2022/10/08 13:52:20;;;;;;;15.73;8.52;;;16.10;99.90;;;;;;4901354;28;88196;-80
2022/10/08 13:54:46;;;;;;;12.15;5.63;;;16.10;99.90;;;;;;4901170;28;88390;-79
2022/10/08 13:57:12;;;;;;;7.75;3.78;;;16.20;99.90;;;;;;4897287;28;86504;-79
2022/10/08 13:59:38;;;;;;;9.55;4.13;;;16.10;99.90;;;;;;4903637;28;86291;-81
2022/10/08 14:02:05;;;;;;;8.82;4.13;;;16.20;99.90;;;;;;4897987;28;87936;-79
2022/10/08 14:04:31;;;;;;;8.70;4.82;;;16.00;99.90;;;;;;4896659;28;86992;-80
2022/10/08 14:06:58;;;;;;;9.98;4.47;;;16.10;99.90;;;;;;4897097;28;87164;-81
2022/10/08 14:09:27;;;;;;;9.65;4.07;;;16.30;99.90;;;;;;4899109;28;85523;-81
2022/10/08 14:11:55;;;;;;;8.57;4.32;;;16.40;99.90;;;;;;4897064;28;86762;-80
2022/10/08 14:14:23;;;;;;;7.97;3.78;;;16.50;99.90;;;;;;4903377;28;86314;-79
2022/10/08 14:16:49;;;;;;;9.35;5.32;;;16.60;99.90;;;;;;4899482;28;87601;-79
2022/10/08 14:19:17;;;;;;;14.40;7.90;;;16.60;99.90;;;;;;4899992;28;87151;-79
2022/10/08 14:21:43;;;;;;;8.88;4.40;;;16.70;99.90;;;;;;4899842;28;87378;-80
2022/10/08 14:24:10;;;;;;;11.02;4.40;;;16.80;99.90;;;;;;4900604;28;86897;-81
2022/10/08 14:26:35;;;;;;;9.45;3.50;;;16.90;99.90;;;;;;4900962;28;86308;-81
2022/10/08 14:29:01;;;;;;;9.57;3.78;;;16.90;99.90;;;;;;4900305;28;86954;-80
2022/10/08 14:31:27;;;;;;;8.07;4.18;;;16.90;99.90;;;;;;4898523;28;86798;-80
2022/10/08 14:33:53;;;;;;;9.57;4.15;;;16.90;99.90;;;;;;4903454;28;86496;-80
2022/10/08 14:36:28;;;;;;;7.50;4.13;;;16.90;99.90;;;;;;4899732;28;87083;-80
2022/10/08 14:38:54;;;;;;;10.40;4.15;;;17.00;99.90;;;;;;4896000;28;86446;-80
2022/10/08 14:41:19;;;;;;;9.93;4.47;;;16.80;99.90;;;;;;4899996;28;88203;-80
2022/10/08 14:43:45;;;;;;;9.50;4.50;;;16.40;99.90;;;;;;4901072;28;87169;-81
2022/10/08 14:46:11;;;;;;;8.38;4.40;;;16.30;99.90;;;;;;4893216;28;87791;-79
2022/10/08 14:48:38;;;;;;;11.52;4.80;;;16.40;99.90;;;;;;4896861;28;86821;-80
2022/10/08 14:51:04;;;;;;;13.20;4.68;;;16.40;99.90;;;;;;4885097;28;90850;-79
2022/10/08 14:53:29;;;;;;;9.32;4.20;;;16.40;99.90;;;;;;4900798;28;87996;-79
2022/10/08 14:55:56;;;;;;;11.02;4.78;;;16.40;99.90;;;;;;4899342;28;87688;-80
2022/10/08 14:58:22;;;;;;;10.68;4.72;;;16.30;99.90;;;;;;4902062;28;85976;-80
2022/10/08 15:00:53;;;;;;;12.07;4.78;;;16.40;99.90;;;;;;4900415;28;86876;-80
2022/10/08 15:03:19;;;;;;;9.02;4.55;;;16.50;99.90;;;;;;4905393;28;87424;-79
2022/10/08 15:05:44;;;;;;;8.30;4.70;;;16.50;99.90;;;;;;4902333;28;87697;-79
2022/10/08 15:08:10;;;;;;;11.25;5.40;;;16.60;99.90;;;;;;4899814;28;86312;-79
2022/10/08 15:10:36;;;;;;;9.05;4.72;;;16.50;99.90;;;;;;4899462;28;86653;-79
2022/10/08 15:13:02;;;;;;;9.27;4.68;;;16.50;99.90;;;;;;4898605;28;87881;-80
2022/10/08 15:15:27;;;;;;;9.77;4.90;;;16.40;99.90;;;;;;4900352;28;87043;-83
2022/10/08 15:17:55;;;;;;;12.73;5.63;;;16.30;99.90;;;;;;4900887;28;86748;-79
2022/10/08 15:20:21;;;;;;;14.52;5.90;;;16.20;99.90;;;;;;4901286;28;87788;-80
2022/10/08 15:22:48;;;;;;;15.98;7.70;;;16.00;99.90;;;;;;4896317;28;86237;-82
2022/10/08 15:25:14;;;;;;;13.88;6.65;;;16.00;99.90;;;;;;4897626;28;89780;-80
2022/10/08 15:27:40;;;;;;;11.65;6.22;;;16.00;99.90;;;;;;4895719;28;86938;-80
2022/10/08 15:30:06;;;;;;;11.48;6.28;;;16.10;99.90;;;;;;4893497;28;89899;-80
2022/10/08 15:32:32;;;;;;;12.10;5.78;;;16.20;99.90;;;;;;4898696;28;87710;-80
2022/10/08 15:34:58;;;;;;;14.90;6.32;;;16.20;99.90;;;;;;4900673;28;86632;-82
2022/10/08 15:37:23;;;;;;;12.02;5.57;;;16.20;99.90;;;;;;4899773;28;86422;-79
2022/10/08 15:39:49;;;;;;;12.40;6.28;;;16.20;99.90;;;;;;4899165;28;86600;-80
2022/10/08 15:42:15;;;;;;;14.23;5.57;;;16.30;99.90;;;;;;4901412;28;86947;-81
2022/10/08 15:44:42;;;;;;;10.15;5.35;;;16.40;99.90;;;;;;4899953;28;86904;-80
2022/10/08 15:47:10;;;;;;;15.73;5.78;;;16.40;99.90;;;;;;4896875;28;86834;-81
2022/10/08 15:49:39;;;;;;;13.77;6.15;;;16.40;99.90;;;;;;4896861;28;86559;-79
2022/10/08 15:52:08;;;;;;;11.60;5.40;;;16.40;99.90;;;;;;4897659;28;86739;-80
2022/10/08 15:54:34;;;;;;;12.32;5.28;;;16.40;99.90;;;;;;4899280;28;87984;-80
2022/10/08 15:57:00;;;;;;;10.85;5.35;;;16.40;99.90;;;;;;4899973;28;86314;-80
2022/10/08 15:59:26;;;;;;;13.32;5.18;;;16.30;99.90;;;;;;4895003;28;87238;-79
2022/10/08 16:01:51;;;;;;;13.80;6.10;;;16.40;99.90;;;;;;4896864;28;87514;-82
2022/10/08 16:04:17;;;;;;;11.10;5.18;;;16.30;99.90;;;;;;4898240;28;86226;-80